createdAt,value
2018-12-30T00:00:35.855Z,8.20
2018-12-30T00:03:03.627Z,8.00
2018-12-30T00:05:31.598Z,9.77
2018-12-30T00:07:59.358Z,7.97
2018-12-30T00:10:26.826Z,8.30
2018-12-30T00:12:54.215Z,8.13
2018-12-30T00:15:22.204Z,8.80
2018-12-30T00:17:49.675Z,7.30
2018-12-30T00:20:16.914Z,6.10
2018-12-30T00:22:44.351Z,7.17
2018-12-30T00:25:11.644Z,6.57
2018-12-30T00:27:39.126Z,5.73
2018-12-30T00:30:08.240Z,6.53
2018-12-30T00:32:35.623Z,6.03
2018-12-30T00:35:02.998Z,6.50
2018-12-30T00:37:30.374Z,5.87
2018-12-30T00:39:57.846Z,6.00
2018-12-30T00:42:25.335Z,5.83
2018-12-30T00:44:53.016Z,6.40
2018-12-30T00:47:20.407Z,6.20
2018-12-30T00:49:47.803Z,6.20
2018-12-30T00:52:15.182Z,6.73
2018-12-30T00:54:42.620Z,6.40
2018-12-30T00:57:09.998Z,5.63
2018-12-30T00:59:37.470Z,6.57
2018-12-30T01:02:05.015Z,6.37
2018-12-30T01:04:32.467Z,6.43
2018-12-30T01:06:59.839Z,5.27
2018-12-30T01:09:27.298Z,6.00
2018-12-30T01:11:54.791Z,7.47
2018-12-30T01:14:22.174Z,6.63
2018-12-30T01:16:49.751Z,6.37
2018-12-30T01:19:17.099Z,5.90
2018-12-30T01:21:44.520Z,7.20
2018-12-30T01:24:12.187Z,6.67
2018-12-30T01:26:39.671Z,7.63
2018-12-30T01:29:09.010Z,6.47
2018-12-30T01:31:36.578Z,7.03
2018-12-30T01:34:04.042Z,7.80
2018-12-30T01:36:31.391Z,6.57
2018-12-30T01:38:58.919Z,7.40
2018-12-30T01:41:26.291Z,6.63
2018-12-30T01:43:53.642Z,8.03
2018-12-30T01:46:21.002Z,8.10
2018-12-30T01:48:48.475Z,7.00
2018-12-30T01:51:15.835Z,7.80
2018-12-30T01:53:43.303Z,7.60
2018-12-30T01:56:10.659Z,7.87
2018-12-30T01:58:38.043Z,7.77
2018-12-30T02:01:05.516Z,6.80
2018-12-30T02:03:32.886Z,7.43
2018-12-30T02:06:00.371Z,6.83
2018-12-30T02:08:27.747Z,7.03
2018-12-30T02:10:55.057Z,6.60
2018-12-30T02:13:22.418Z,7.27
2018-12-30T02:15:50.087Z,7.80
2018-12-30T02:18:17.469Z,7.10
2018-12-30T02:20:44.966Z,7.03
2018-12-30T02:23:12.338Z,9.17
2018-12-30T02:25:39.631Z,7.70
2018-12-30T02:28:07.351Z,6.90
2018-12-30T02:30:35.122Z,6.77
2018-12-30T02:33:02.498Z,7.87
2018-12-30T02:35:29.782Z,7.87
2018-12-30T02:37:57.063Z,7.90
2018-12-30T02:40:24.336Z,7.30
2018-12-30T02:42:51.714Z,8.17
2018-12-30T02:45:19.002Z,7.30
2018-12-30T02:47:46.257Z,7.30
2018-12-30T02:50:13.646Z,7.10
2018-12-30T02:52:40.898Z,6.60
2018-12-30T02:55:08.137Z,7.07
2018-12-30T02:57:35.391Z,7.77
2018-12-30T03:00:02.996Z,7.70
2018-12-30T03:02:30.272Z,7.50
2018-12-30T03:04:57.752Z,7.93
2018-12-30T03:17:54.626Z,6.67
2018-12-30T03:20:21.916Z,8.77
2018-12-30T03:22:49.286Z,7.70
2018-12-30T03:25:16.545Z,7.73
2018-12-30T03:27:43.889Z,7.40
2018-12-30T03:30:11.480Z,7.90
2018-12-30T03:32:38.841Z,8.10
2018-12-30T03:35:06.257Z,6.97
2018-12-30T03:37:33.522Z,6.97
2018-12-30T03:40:00.775Z,7.50
2018-12-30T03:42:28.084Z,8.40
2018-12-30T03:44:55.513Z,7.60
2018-12-30T03:47:23.071Z,6.53
2018-12-30T03:49:50.452Z,6.87
2018-12-30T03:52:17.728Z,6.80
2018-12-30T03:54:45.091Z,6.73
2018-12-30T03:57:12.493Z,6.77
2018-12-30T03:59:39.843Z,7.40
2018-12-30T04:02:07.295Z,6.80
2018-12-30T04:04:34.556Z,6.97
2018-12-30T04:07:02.016Z,7.00
2018-12-30T04:09:29.373Z,7.17
2018-12-30T04:11:56.646Z,7.90
2018-12-30T04:14:23.925Z,6.10
2018-12-30T04:16:51.186Z,6.13
2018-12-30T04:19:18.427Z,6.07
2018-12-30T04:21:45.701Z,6.70
2018-12-30T04:24:13.064Z,6.10
2018-12-30T04:26:40.458Z,6.73
2018-12-30T04:29:07.731Z,5.40
2018-12-30T04:31:35.003Z,5.97
2018-12-30T04:34:02.247Z,7.23
2018-12-30T04:36:29.607Z,5.30
2018-12-30T04:38:56.922Z,5.30
2018-12-30T04:41:24.183Z,5.23
2018-12-30T04:43:53.483Z,5.40
2018-12-30T04:46:20.752Z,6.40
2018-12-30T04:48:48.341Z,6.93
2018-12-30T04:51:15.695Z,5.60
2018-12-30T04:53:42.971Z,5.87
2018-12-30T04:56:10.248Z,4.57
2018-12-30T04:58:37.563Z,5.13
2018-12-30T05:01:04.832Z,5.17
2018-12-30T05:03:32.066Z,5.30
2018-12-30T05:05:59.339Z,5.60
2018-12-30T05:08:26.584Z,5.83
2018-12-30T05:10:53.948Z,5.90
2018-12-30T05:13:21.331Z,5.37
2018-12-30T05:15:48.711Z,7.40
2018-12-30T05:18:15.971Z,5.40
2018-12-30T05:20:43.490Z,4.70
2018-12-30T05:23:10.994Z,5.43
2018-12-30T05:25:38.410Z,4.80
2018-12-30T05:28:05.787Z,5.10
2018-12-30T05:30:33.060Z,5.63
2018-12-30T05:33:00.299Z,4.80
2018-12-30T05:35:27.558Z,4.87
2018-12-30T05:37:54.803Z,4.70
2018-12-30T05:40:22.191Z,4.90
2018-12-30T05:42:49.557Z,5.00
2018-12-30T05:45:16.838Z,5.90
2018-12-30T05:47:44.190Z,5.20
2018-12-30T05:50:11.607Z,5.47
2018-12-30T05:52:42.020Z,6.40
2018-12-30T05:55:08.069Z,5.27
2018-12-30T05:57:35.455Z,4.83
2018-12-30T06:00:03.115Z,5.20
2018-12-30T06:02:30.363Z,4.17
2018-12-30T06:04:57.746Z,4.30
2018-12-30T06:07:25.008Z,6.57
2018-12-30T06:09:52.377Z,4.37
2018-12-30T06:12:19.647Z,4.17
2018-12-30T06:14:46.934Z,5.30
2018-12-30T06:17:14.215Z,3.57
2018-12-30T06:19:41.481Z,4.43
2018-12-30T06:22:08.853Z,3.93
2018-12-30T06:24:36.327Z,3.83
2018-12-30T06:27:03.606Z,3.80
2018-12-30T06:29:30.878Z,3.97
2018-12-30T06:31:58.239Z,3.80
2018-12-30T06:34:25.671Z,3.30
2018-12-30T06:36:53.055Z,3.50
2018-12-30T06:39:20.443Z,3.73
2018-12-30T06:41:47.719Z,3.70
2018-12-30T06:44:15.015Z,3.30
2018-12-30T06:46:42.288Z,3.43
2018-12-30T06:49:10.630Z,2.97
2018-12-30T06:51:38.158Z,3.33
2018-12-30T06:54:05.507Z,3.53
2018-12-30T06:56:32.935Z,3.63
2018-12-30T06:59:00.203Z,3.30
2018-12-30T07:01:27.539Z,2.90
2018-12-30T07:03:54.811Z,3.13
2018-12-30T07:06:22.071Z,3.13
2018-12-30T07:08:49.402Z,3.27
2018-12-30T07:11:16.670Z,2.90
2018-12-30T07:13:44.082Z,2.93
2018-12-30T07:16:11.334Z,3.10
2018-12-30T07:18:38.599Z,3.50
2018-12-30T07:21:05.863Z,3.00
2018-12-30T07:23:33.136Z,3.17
2018-12-30T07:26:00.615Z,2.70
2018-12-30T07:28:27.886Z,2.40
2018-12-30T07:30:55.135Z,3.00
2018-12-30T07:33:23.197Z,2.37
2018-12-30T07:35:50.575Z,2.77
2018-12-30T07:38:17.954Z,2.53
2018-12-30T07:40:45.226Z,2.50
2018-12-30T07:43:12.491Z,2.47
2018-12-30T07:45:39.852Z,2.40
2018-12-30T07:48:07.214Z,4.37
2018-12-30T07:50:34.482Z,2.30
2018-12-30T07:53:01.761Z,2.30
2018-12-30T07:55:29.028Z,2.80
2018-12-30T07:57:56.420Z,12.80
2018-12-30T08:00:23.846Z,9.97
2018-12-30T08:02:51.279Z,3.13
2018-12-30T08:05:18.547Z,2.73
2018-12-30T08:07:45.830Z,3.03
2018-12-30T08:10:13.215Z,6.40
2018-12-30T08:12:40.498Z,3.83
2018-12-30T08:15:07.847Z,3.10
2018-12-30T08:17:35.234Z,9.10
2018-12-30T08:20:03.215Z,3.73
2018-12-30T08:22:30.506Z,2.80
2018-12-30T08:24:57.788Z,2.10
2018-12-30T08:27:25.062Z,2.43
2018-12-30T08:29:52.548Z,2.00
2018-12-30T08:32:19.819Z,1.93
2018-12-30T08:34:47.079Z,1.73
2018-12-30T08:37:14.362Z,2.03
2018-12-30T08:39:41.642Z,1.50
2018-12-30T08:42:09.035Z,1.50
2018-12-30T08:44:36.376Z,1.70
2018-12-30T08:47:03.739Z,1.57
2018-12-30T08:49:31.014Z,1.13
2018-12-30T08:51:58.251Z,1.70
2018-12-30T08:54:25.599Z,1.80
2018-12-30T08:56:53.076Z,1.50
2018-12-30T08:59:20.451Z,1.83
2018-12-30T09:01:47.694Z,1.70
2018-12-30T09:04:14.954Z,1.60
2018-12-30T09:06:43.965Z,1.57
2018-12-30T09:09:11.322Z,1.50
2018-12-30T09:11:38.679Z,1.30
2018-12-30T09:14:05.959Z,1.80
2018-12-30T09:16:33.237Z,1.97
2018-12-30T09:19:00.494Z,2.80
2018-12-30T09:21:27.747Z,1.80
2018-12-30T09:23:55.011Z,2.17
2018-12-30T09:26:22.376Z,1.70
2018-12-30T09:28:49.655Z,1.73
2018-12-30T09:31:16.934Z,2.13
2018-12-30T09:33:44.550Z,2.27
2018-12-30T09:36:11.886Z,2.10
2018-12-30T09:38:39.163Z,1.90
2018-12-30T09:41:06.427Z,2.07
2018-12-30T09:43:33.812Z,3.03
2018-12-30T09:46:01.096Z,1.67
2018-12-30T09:48:33.733Z,2.20
2018-12-30T09:50:57.508Z,2.23
2018-12-30T09:53:24.789Z,1.60
2018-12-30T09:55:52.055Z,2.10
2018-12-30T09:58:19.409Z,1.77
2018-12-30T10:00:47.604Z,1.73
2018-12-30T10:03:15.183Z,1.70
2018-12-30T10:05:42.523Z,1.63
2018-12-30T10:08:09.792Z,1.87
2018-12-30T10:10:37.071Z,2.40
2018-12-30T10:13:04.574Z,1.83
2018-12-30T10:15:31.947Z,2.07
2018-12-30T10:17:59.214Z,1.80
2018-12-30T10:20:26.563Z,1.70
2018-12-30T10:22:58.745Z,2.33
2018-12-30T10:25:23.005Z,2.30
2018-12-30T10:27:50.379Z,2.73
2018-12-30T10:30:17.751Z,2.67
2018-12-30T10:32:45.203Z,3.33
2018-12-30T10:35:12.439Z,3.20
2018-12-30T10:37:39.706Z,2.40
2018-12-30T10:40:07.058Z,3.20
2018-12-30T10:42:34.348Z,3.20
2018-12-30T10:45:01.726Z,3.20
2018-12-30T10:47:28.991Z,3.00
2018-12-30T10:49:56.232Z,3.40
2018-12-30T10:52:23.524Z,3.20
2018-12-30T10:54:50.795Z,3.40
2018-12-30T10:57:18.070Z,3.00
2018-12-30T10:59:45.451Z,2.80
2018-12-30T11:02:12.746Z,3.00
2018-12-30T11:04:39.979Z,3.03
2018-12-30T11:07:07.251Z,2.33
2018-12-30T11:09:34.514Z,2.73
2018-12-30T11:12:01.797Z,2.70
2018-12-30T11:14:29.065Z,2.40
2018-12-30T11:16:56.325Z,2.50
2018-12-30T11:19:23.599Z,1.70
2018-12-30T11:21:50.875Z,2.20
2018-12-30T11:24:18.247Z,2.20
2018-12-30T11:26:45.527Z,2.43
2018-12-30T11:29:12.798Z,2.30
2018-12-30T11:31:40.071Z,3.00
2018-12-30T11:34:07.314Z,1.90
2018-12-30T11:36:34.687Z,2.00
2018-12-30T11:39:02.155Z,1.73
2018-12-30T11:41:29.431Z,1.80
2018-12-30T11:43:56.715Z,2.30
2018-12-30T11:46:24.099Z,1.80
2018-12-30T11:48:51.334Z,2.30
2018-12-30T11:51:18.595Z,2.10
2018-12-30T11:53:45.863Z,3.20
2018-12-30T11:56:13.210Z,2.30
2018-12-30T11:58:40.563Z,1.67
2018-12-30T12:01:07.854Z,2.33
2018-12-30T12:03:35.235Z,3.07
2018-12-30T12:06:02.603Z,3.00
2018-12-30T12:08:29.929Z,2.80
2018-12-30T12:10:57.160Z,2.90
2018-12-30T12:13:24.422Z,3.00
2018-12-30T12:15:51.797Z,2.73
2018-12-30T12:18:19.176Z,3.50
2018-12-30T12:20:46.466Z,3.30
2018-12-30T12:23:13.847Z,3.77
2018-12-30T12:25:41.194Z,4.47
2018-12-30T12:28:08.564Z,4.30
2018-12-30T12:30:35.918Z,4.27
2018-12-30T12:33:03.294Z,6.10
2018-12-30T12:35:30.626Z,4.97
2018-12-30T12:37:57.991Z,4.20
2018-12-30T12:40:25.352Z,4.93
2018-12-30T12:42:52.631Z,5.27
2018-12-30T12:45:19.891Z,4.73
2018-12-30T12:47:47.178Z,5.07
2018-12-30T12:50:14.739Z,4.40
2018-12-30T12:52:42.143Z,4.40
2018-12-30T12:55:09.758Z,5.10
2018-12-30T12:57:37.199Z,4.50
2018-12-30T13:00:07.027Z,4.93
2018-12-30T13:02:34.281Z,4.80
2018-12-30T13:05:01.605Z,5.40
2018-12-30T13:07:29.115Z,5.30
2018-12-30T13:09:56.466Z,5.00
2018-12-30T13:12:23.719Z,5.30
2018-12-30T13:14:50.974Z,5.67
2018-12-30T13:17:19.956Z,5.10
2018-12-30T13:19:47.226Z,4.17
2018-12-30T13:22:14.612Z,5.50
2018-12-30T13:24:41.851Z,5.90
2018-12-30T13:27:09.219Z,7.20
2018-12-30T13:29:36.590Z,4.97
2018-12-30T13:32:03.867Z,5.00
2018-12-30T13:34:31.143Z,4.60
2018-12-30T13:36:58.399Z,3.77
2018-12-30T13:39:25.740Z,4.37
2018-12-30T13:41:53.006Z,4.83
2018-12-30T13:44:20.264Z,4.60
2018-12-30T13:46:47.646Z,4.37
2018-12-30T13:49:14.914Z,4.00
2018-12-30T13:51:42.296Z,6.43
2018-12-30T13:54:09.539Z,5.20
2018-12-30T13:56:36.812Z,4.47
2018-12-30T13:59:04.191Z,4.90
2018-12-30T14:01:31.458Z,4.57
2018-12-30T14:03:58.787Z,5.23
2018-12-30T14:06:26.068Z,4.53
2018-12-30T14:08:53.308Z,4.33
2018-12-30T14:11:20.664Z,4.60
2018-12-30T14:13:47.910Z,4.83
2018-12-30T14:16:15.195Z,4.50
2018-12-30T14:18:42.599Z,5.33
2018-12-30T14:21:10.258Z,5.20
2018-12-30T14:23:37.600Z,5.30
2018-12-30T14:26:04.888Z,4.43
2018-12-30T14:28:32.259Z,4.00
2018-12-30T14:30:59.546Z,4.57
2018-12-30T14:33:27.131Z,5.33
2018-12-30T14:35:54.400Z,4.70
2018-12-30T14:38:21.737Z,4.50
2018-12-30T14:40:49.099Z,4.37
2018-12-30T14:43:16.451Z,5.17
2018-12-30T14:45:43.823Z,4.40
2018-12-30T14:48:11.195Z,4.60
2018-12-30T14:50:38.466Z,4.37
2018-12-30T14:53:05.699Z,4.40
2018-12-30T14:55:33.068Z,3.90
2018-12-30T14:58:00.354Z,3.60
2018-12-30T15:00:27.795Z,4.53
2018-12-30T15:02:55.027Z,4.00
2018-12-30T15:05:22.286Z,4.17
2018-12-30T15:07:49.568Z,4.40
2018-12-30T15:10:16.849Z,3.40
2018-12-30T15:12:44.091Z,3.30
2018-12-30T15:15:11.337Z,5.70
2018-12-30T15:17:38.788Z,4.40
2018-12-30T15:20:06.323Z,3.30
2018-12-30T15:22:33.595Z,4.43
2018-12-30T15:25:00.864Z,3.73
2018-12-30T15:27:28.264Z,4.60
2018-12-30T15:29:55.572Z,4.10
2018-12-30T15:32:22.835Z,3.90
2018-12-30T15:34:50.099Z,4.43
2018-12-30T15:37:17.484Z,5.63
2018-12-30T15:39:44.868Z,3.60
2018-12-30T15:42:18.711Z,4.03
2018-12-30T15:44:41.298Z,3.83
2018-12-30T15:47:08.739Z,3.67
2018-12-30T15:49:35.994Z,4.07
2018-12-30T15:52:03.377Z,4.60
2018-12-30T15:54:30.649Z,4.03
2018-12-30T15:56:58.013Z,4.50
2018-12-30T15:59:25.276Z,4.70
2018-12-30T16:01:52.558Z,4.10
2018-12-30T16:04:19.823Z,3.70
2018-12-30T16:06:47.114Z,3.50
2018-12-30T16:09:14.511Z,3.20
2018-12-30T16:11:41.783Z,2.83
2018-12-30T16:14:09.015Z,3.20
2018-12-30T16:16:36.275Z,4.03
2018-12-30T16:19:03.543Z,2.40
2018-12-30T16:21:30.815Z,2.87
2018-12-30T16:23:58.194Z,3.20
2018-12-30T16:26:25.463Z,3.30
2018-12-30T16:28:52.699Z,3.23
2018-12-30T16:31:19.950Z,2.97
2018-12-30T16:33:47.204Z,3.33
2018-12-30T16:36:14.471Z,3.30
2018-12-30T16:38:41.923Z,2.67
2018-12-30T16:41:09.207Z,2.27
2018-12-30T16:43:36.455Z,2.70
2018-12-30T16:46:03.819Z,2.27
2018-12-30T16:48:31.068Z,2.43
2018-12-30T16:50:58.335Z,2.93
2018-12-30T16:53:25.734Z,2.80
2018-12-30T16:55:52.999Z,2.77
2018-12-30T16:58:20.380Z,2.57
2018-12-30T17:00:47.645Z,3.10
2018-12-30T17:03:15.011Z,2.50
2018-12-30T17:05:42.283Z,2.60
2018-12-30T17:08:09.651Z,2.37
2018-12-30T17:10:37.043Z,2.83
2018-12-30T17:13:04.414Z,2.87
2018-12-30T17:15:31.871Z,2.80
2018-12-30T17:17:59.272Z,2.40
2018-12-30T17:20:26.554Z,3.00
2018-12-30T17:22:53.831Z,2.60
2018-12-30T17:25:21.082Z,2.97
2018-12-30T17:27:48.426Z,2.50
2018-12-30T17:30:15.808Z,2.27
2018-12-30T17:32:43.178Z,2.40
2018-12-30T17:35:12.578Z,2.37
2018-12-30T17:37:40.092Z,1.93
2018-12-30T17:40:07.360Z,2.50
2018-12-30T17:42:34.605Z,2.60
2018-12-30T17:45:01.997Z,2.20
2018-12-30T17:47:29.340Z,2.70
2018-12-30T17:49:56.719Z,2.00
2018-12-30T17:52:24.091Z,2.43
2018-12-30T17:54:51.587Z,2.27
2018-12-30T17:57:18.851Z,2.30
2018-12-30T17:59:46.263Z,2.13
2018-12-30T18:02:13.626Z,3.00
2018-12-30T18:04:40.860Z,2.37
2018-12-30T18:07:08.206Z,2.50
2018-12-30T18:09:35.463Z,1.90
2018-12-30T18:12:02.871Z,2.40
2018-12-30T18:14:30.138Z,2.40
2018-12-30T18:16:57.507Z,2.10
2018-12-30T18:19:24.743Z,2.33
2018-12-30T18:21:52.031Z,2.00
2018-12-30T18:24:19.286Z,2.33
2018-12-30T18:26:46.558Z,2.47
2018-12-30T18:29:13.938Z,2.17
2018-12-30T18:31:41.203Z,2.10
2018-12-30T18:34:08.444Z,2.67
2018-12-30T18:36:35.698Z,2.60
2018-12-30T18:39:05.824Z,2.80
2018-12-30T18:41:33.186Z,2.73
2018-12-30T18:44:00.474Z,1.90
2018-12-30T18:46:27.778Z,2.30
2018-12-30T18:48:55.030Z,2.13
2018-12-30T18:51:22.292Z,2.73
2018-12-30T18:53:49.646Z,2.37
2018-12-30T18:56:17.084Z,2.20
2018-12-30T18:58:44.471Z,3.33
2018-12-30T19:01:11.842Z,2.00
2018-12-30T19:03:39.099Z,2.10
2018-12-30T19:06:06.459Z,2.43
2018-12-30T19:08:33.723Z,3.73
2018-12-30T19:11:01.270Z,2.33
2018-12-30T19:13:28.667Z,3.00
2018-12-30T19:15:55.947Z,2.40
2018-12-30T19:18:23.295Z,2.53
2018-12-30T19:20:50.547Z,3.30
2018-12-30T19:23:17.795Z,2.20
2018-12-30T19:25:45.131Z,2.20
2018-12-30T19:28:12.407Z,2.17
2018-12-30T19:30:39.675Z,2.33
2018-12-30T19:33:06.922Z,2.33
2018-12-30T19:35:34.182Z,2.53
2018-12-30T19:38:01.439Z,2.47
2018-12-30T19:40:28.715Z,2.20
2018-12-30T19:42:55.998Z,2.87
2018-12-30T19:45:23.303Z,2.57
2018-12-30T19:47:50.555Z,2.93
2018-12-30T19:50:17.803Z,2.73
2018-12-30T19:52:45.058Z,3.80
2018-12-30T19:55:12.402Z,2.30
2018-12-30T19:57:39.675Z,2.57
2018-12-30T20:00:09.119Z,3.20
2018-12-30T20:02:36.459Z,3.83
2018-12-30T20:05:03.948Z,3.40
2018-12-30T20:07:31.258Z,3.33
2018-12-30T20:09:59.594Z,3.20
2018-12-30T20:12:26.880Z,3.00
2018-12-30T20:14:54.247Z,2.93
2018-12-30T20:17:21.651Z,3.17
2018-12-30T20:19:48.902Z,3.03
2018-12-30T20:22:16.264Z,2.20
2018-12-30T20:24:43.535Z,2.63
2018-12-30T20:27:10.800Z,3.17
2018-12-30T20:29:38.174Z,3.03
2018-12-30T20:32:05.511Z,3.00
2018-12-30T20:34:32.887Z,3.07
2018-12-30T20:37:00.135Z,2.60
2018-12-30T20:39:27.512Z,2.90
2018-12-30T20:41:54.815Z,2.70
2018-12-30T20:44:22.182Z,3.33
2018-12-30T20:46:49.530Z,2.67
2018-12-30T20:49:16.792Z,3.63
2018-12-30T20:51:44.039Z,2.60
2018-12-30T20:54:11.323Z,3.47
2018-12-30T20:56:38.594Z,2.57
2018-12-30T20:59:05.859Z,3.20
2018-12-30T21:01:33.253Z,2.47
2018-12-30T21:04:00.495Z,2.93
2018-12-30T21:06:27.863Z,3.07
2018-12-30T21:08:55.103Z,3.03
2018-12-30T21:11:22.451Z,3.10
2018-12-30T21:13:49.845Z,2.97
2018-12-30T21:16:17.352Z,3.63
2018-12-30T21:18:44.742Z,3.00
2018-12-30T21:21:11.999Z,3.20
2018-12-30T21:23:39.344Z,3.43
2018-12-30T21:26:06.703Z,3.00
2018-12-30T21:28:34.054Z,3.00
2018-12-30T21:31:01.322Z,3.43
2018-12-30T21:33:28.618Z,4.97
2018-12-30T21:35:55.871Z,3.20
2018-12-30T21:38:23.111Z,3.03
2018-12-30T21:40:50.487Z,2.90
2018-12-30T21:43:17.839Z,3.70
2018-12-30T21:45:45.334Z,3.50
2018-12-30T21:48:12.827Z,2.50
2018-12-30T21:50:40.100Z,2.73
2018-12-30T21:53:07.370Z,3.40
2018-12-30T21:55:34.738Z,3.27
2018-12-30T21:58:02.113Z,2.50
2018-12-30T22:00:29.499Z,2.33
2018-12-30T22:02:56.882Z,3.17
2018-12-30T22:05:24.212Z,3.20
2018-12-30T22:07:51.559Z,3.50
2018-12-30T22:10:18.915Z,3.17
2018-12-30T22:12:46.186Z,2.80
2018-12-30T22:15:13.431Z,3.70
2018-12-30T22:17:40.721Z,2.83
2018-12-30T22:20:07.979Z,3.30
2018-12-30T22:22:35.220Z,3.00
2018-12-30T22:25:02.700Z,3.53
2018-12-30T22:27:30.189Z,3.00
2018-12-30T22:29:57.628Z,2.60
2018-12-30T22:32:25.054Z,2.60
2018-12-30T22:34:52.422Z,3.77
2018-12-30T22:37:19.719Z,3.30
2018-12-30T22:39:46.975Z,3.20
2018-12-30T22:42:14.247Z,3.07
2018-12-30T22:44:41.623Z,3.80
2018-12-30T22:47:09.051Z,3.17
2018-12-30T22:49:36.490Z,3.13
2018-12-30T22:52:03.882Z,3.43
2018-12-30T22:54:31.136Z,3.33
2018-12-30T22:56:58.398Z,3.47
2018-12-30T22:59:25.767Z,2.87
2018-12-30T23:01:53.127Z,2.93
2018-12-30T23:04:20.593Z,3.30
2018-12-30T23:06:47.834Z,2.43
2018-12-30T23:09:15.221Z,3.60
2018-12-30T23:11:42.494Z,3.60
2018-12-30T23:14:09.778Z,3.73
2018-12-30T23:16:37.054Z,2.80
2018-12-30T23:19:04.343Z,3.03
2018-12-30T23:21:31.582Z,2.80
2018-12-30T23:23:58.888Z,3.17
2018-12-30T23:26:26.139Z,3.10
2018-12-30T23:28:53.514Z,3.17
2018-12-30T23:31:20.771Z,2.93
2018-12-30T23:33:48.034Z,3.60
2018-12-30T23:36:15.271Z,3.20
2018-12-30T23:38:42.523Z,4.27
2018-12-30T23:41:09.783Z,4.00
2018-12-30T23:43:37.050Z,3.70
2018-12-30T23:46:04.479Z,3.70
2018-12-30T23:48:31.758Z,4.13
2018-12-30T23:50:59.002Z,4.13
2018-12-30T23:53:26.259Z,3.50
2018-12-30T23:55:53.531Z,3.63
2018-12-30T23:58:20.818Z,3.97
